Terminal Aerodrome Forecast
Issued by NWS New Orleans/Baton Rouge, LA

Home | Current Version | Previous Version | Text Only | Print | Product List | Glossary On
Versions: 1 2 3 4 5 6 7 8 9 10 11 12 13 14
594
FTUS44 KLIX 311720
TAFBTR
TAF
KBTR 311720Z 3118/0118 00000KT P6SM FEW035
     FM312300 20007KT P6SM SCT050 BKN200
     FM010400 VRB03KT P6SM FEW050 SCT250=

USA.gov is the U.S. government's official web portal to all federal, state and local government web resources and services.